Time;durP1;ratioP1;P1;durP2;ratioP2;P2;SDS_P1;SDS_P2;PMS_P1;PMS_P2;Temp;Humidity;BMP_temperature;BMP_pressure;BME280_temperature;BME280_humidity;BME280_pressure;Samples;Min_cycle;Max_cycle;Signal;HPM_P1;HPM_P2
2021/07/21 00:00:53;;;;;;;13.83;9.87;;;15.00;99.90;;;16.25;100.00;98650.53;5046258;28;20986;-84
2021/07/21 00:03:23;;;;;;;17.80;10.23;;;15.10;99.90;;;16.36;100.00;98649.91;5046630;28;20505;-84
2021/07/21 00:05:52;;;;;;;21.97;11.20;;;15.20;99.90;;;16.41;100.00;98652.75;5047598;28;20468;-84
2021/07/21 00:08:21;;;;;;;18.77;9.83;;;15.30;99.90;;;16.41;100.00;98657.19;5051684;28;20442;-84
2021/07/21 00:13:26;;;;;;;17.40;10.60;;;15.30;99.90;;;16.41;100.00;98658.03;5047724;28;20963;-84
2021/07/21 00:13:37;;;;;;;13.17;10.07;;;15.30;99.90;;;16.27;100.00;98659.09;5046019;28;20518;-85
2021/07/21 00:16:14;;;;;;;17.50;11.43;;;15.20;99.90;;;16.13;100.00;98659.31;5044447;28;20974;-84
2021/07/21 00:18:48;;;;;;;18.50;10.70;;;14.90;99.90;;;15.91;100.00;98658.75;5046789;28;20788;-84
2021/07/21 00:21:23;;;;;;;15.27;11.10;;;14.70;99.90;;;15.99;100.00;98653.28;5039957;28;20469;-84
2021/07/21 00:23:52;;;;;;;17.33;11.00;;;14.90;99.90;;;16.02;100.00;98660.75;5048935;28;20465;-84
2021/07/21 00:26:21;;;;;;;16.23;10.30;;;14.90;99.90;;;15.72;100.00;98654.31;5045397;28;20472;-84
2021/07/21 00:28:49;;;;;;;18.70;11.10;;;14.50;99.90;;;15.82;100.00;98657.34;5049030;28;20460;-84
2021/07/21 00:31:18;;;;;;;16.10;10.27;;;14.60;99.90;;;15.91;100.00;98646.38;5047104;28;20457;-84
2021/07/21 00:33:49;;;;;;;17.63;10.67;;;14.80;99.90;;;15.92;100.00;98653.28;5042612;28;20469;-84
2021/07/21 00:36:17;;;;;;;15.77;10.90;;;14.80;99.90;;;15.90;100.00;98643.94;5046912;28;20457;-84
2021/07/21 00:38:46;;;;;;;17.03;10.77;;;14.70;99.90;;;15.83;100.00;98643.13;5048160;28;21008;-84
2021/07/21 00:41:14;;;;;;;19.10;10.97;;;14.60;99.90;;;15.78;100.00;98642.97;5045685;28;20453;-84
2021/07/21 00:43:43;;;;;;;18.30;10.47;;;14.60;99.90;;;15.92;100.00;98639.28;5053212;28;20550;-84
2021/07/21 00:46:11;;;;;;;16.13;10.00;;;14.80;99.90;;;15.84;100.00;98634.22;5043543;28;20485;-84
2021/07/21 00:48:40;;;;;;;21.40;9.60;;;14.70;99.90;;;15.84;100.00;98642.13;5047284;28;20473;-85
2021/07/21 00:51:10;;;;;;;20.20;10.70;;;14.70;99.90;;;15.84;100.00;98637.66;5047313;28;20569;-84
2021/07/21 00:53:39;;;;;;;21.70;11.53;;;14.70;99.90;;;15.72;100.00;98636.69;5040851;28;20966;-84
2021/07/21 00:56:07;;;;;;;16.57;9.73;;;14.60;99.90;;;15.68;100.00;98634.66;5040241;28;20511;-85
2021/07/21 00:58:36;;;;;;;24.17;9.63;;;14.50;99.90;;;15.67;100.00;98633.03;5047056;28;20465;-84
2021/07/21 01:01:06;;;;;;;17.23;10.00;;;14.40;99.90;;;15.72;100.00;98628.78;5039980;28;20531;-84
2021/07/21 01:03:34;;;;;;;19.57;10.10;;;14.60;99.90;;;15.69;100.00;98629.16;5043056;28;20511;-84
2021/07/21 01:06:06;;;;;;;17.00;9.83;;;14.50;99.90;;;15.52;100.00;98634.03;5040154;28;20474;-84
2021/07/21 01:08:36;;;;;;;20.20;10.30;;;14.30;99.90;;;15.52;100.00;98630.59;5044822;28;20511;-84
2021/07/21 01:11:18;;;;;;;15.50;9.83;;;14.30;99.90;;;15.38;100.00;98634.22;5045020;28;21053;-84
2021/07/21 01:14:05;;;;;;;22.47;11.63;;;14.10;99.90;;;15.49;100.00;98637.09;5044370;28;20500;-84
2021/07/21 01:16:40;;;;;;;20.63;9.77;;;14.30;99.90;;;15.52;100.00;98631.41;5043468;28;20465;-84
2021/07/21 01:19:18;;;;;;;15.77;10.10;;;14.50;99.90;;;15.47;100.00;98633.00;5041898;28;20465;-85
2021/07/21 01:22:15;;;;;;;16.53;9.63;;;14.40;99.90;;;15.45;100.00;98637.66;5044849;28;20633;-84
2021/07/21 01:25:08;;;;;;;15.17;10.70;;;14.40;99.90;;;15.41;100.00;98637.25;5045421;28;20924;-84
2021/07/21 01:27:42;;;;;;;17.93;10.50;;;14.30;99.90;;;15.38;100.00;98624.50;5041959;28;20459;-84
2021/07/21 01:30:17;;;;;;;14.33;9.60;;;14.20;99.90;;;15.38;100.00;98639.50;5043584;28;20847;-84
2021/07/21 01:32:50;;;;;;;17.80;10.27;;;14.20;99.90;;;15.31;100.00;98634.22;5046058;28;20557;-84
2021/07/21 01:35:23;;;;;;;16.97;9.60;;;14.20;99.90;;;15.32;100.00;98640.31;5045601;28;20465;-84
2021/07/21 01:37:58;;;;;;;17.90;9.63;;;14.20;99.90;;;15.29;100.00;98638.91;5045088;28;20729;-84
2021/07/21 01:40:33;;;;;;;15.67;9.73;;;14.10;99.90;;;15.10;100.00;98637.03;5043047;28;20960;-84
2021/07/21 01:43:08;;;;;;;23.93;10.07;;;13.90;99.90;;;15.23;100.00;98637.06;5045687;28;21051;-84
2021/07/21 01:45:41;;;;;;;15.97;9.87;;;14.10;99.90;;;15.24;100.00;98638.66;5044259;28;20917;-84
2021/07/21 01:48:11;;;;;;;14.50;9.37;;;14.20;99.90;;;15.28;100.00;98636.44;5044811;28;20993;-84
2021/07/21 01:50:42;;;;;;;14.90;9.17;;;14.20;99.90;;;15.10;100.00;98647.56;5043228;28;20930;-84
2021/07/21 01:53:12;;;;;;;14.53;9.17;;;14.00;99.90;;;15.02;100.00;98642.53;5049522;28;20491;-84
2021/07/21 01:55:42;;;;;;;13.20;8.90;;;13.80;99.90;;;15.00;100.00;98636.63;5047294;28;20453;-83
2021/07/21 01:58:13;;;;;;;21.37;8.93;;;13.80;99.90;;;14.90;100.00;98641.47;5045804;28;20465;-85
2021/07/21 02:00:49;;;;;;;15.60;9.20;;;13.70;99.90;;;14.81;100.00;98645.31;5045082;28;20477;-84
2021/07/21 02:03:20;;;;;;;14.03;9.50;;;13.70;99.90;;;14.61;100.00;98648.69;5046947;28;20770;-84
2021/07/21 02:05:50;;;;;;;16.17;9.20;;;13.50;99.90;;;14.63;100.00;98645.88;5045254;28;20514;-84
2021/07/21 02:08:22;;;;;;;17.50;9.70;;;13.50;99.90;;;14.73;100.00;98648.13;5048418;28;20952;-84
2021/07/21 02:10:51;;;;;;;15.70;9.57;;;13.60;99.90;;;14.76;100.00;98650.34;5046772;28;20890;-84
2021/07/21 02:13:25;;;;;;;20.00;9.77;;;13.50;99.90;;;14.76;100.00;98639.81;5045227;28;20501;-84
2021/07/21 02:15:55;;;;;;;16.43;9.10;;;13.60;99.90;;;14.75;100.00;98638.22;5047500;28;21030;-84
2021/07/21 02:18:25;;;;;;;18.50;10.87;;;13.50;99.90;;;14.72;100.00;98644.66;5054063;28;20444;-84
2021/07/21 02:20:54;;;;;;;17.17;9.67;;;13.50;99.90;;;14.76;100.00;98647.72;5039368;28;20469;-84
2021/07/21 02:23:28;;;;;;;16.93;9.50;;;13.60;99.90;;;14.61;100.00;98640.78;5043466;28;20514;-84
2021/07/21 02:26:01;;;;;;;19.17;9.90;;;13.40;99.90;;;14.55;100.00;98644.22;5045535;28;20460;-84
2021/07/21 02:28:34;;;;;;;12.03;8.47;;;13.40;99.90;;;14.47;100.00;98644.38;5042998;28;20688;-84
2021/07/21 02:31:11;;;;;;;29.27;10.20;;;13.30;99.90;;;14.49;100.00;98644.19;5045839;28;20473;-84
2021/07/21 02:33:50;;;;;;;15.10;9.63;;;13.40;99.90;;;14.49;100.00;98645.00;5042661;28;20488;-84
2021/07/21 02:36:19;;;;;;;19.63;9.90;;;13.30;99.90;;;14.38;100.00;98642.94;5043602;28;20518;-85
2021/07/21 02:38:48;;;;;;;17.30;8.73;;;13.20;99.90;;;14.37;100.00;98643.94;5045893;28;20469;-84
2021/07/21 02:41:17;;;;;;;15.73;8.80;;;13.20;99.90;;;14.46;100.00;98644.59;5042731;28;20465;-84
2021/07/21 02:43:48;;;;;;;30.43;9.80;;;13.30;99.90;;;14.38;100.00;98640.31;5052493;28;20456;-84
2021/07/21 02:46:17;;;;;;;14.40;8.43;;;13.20;99.90;;;14.30;100.00;98640.44;5044580;28;20534;-84
2021/07/21 02:48:47;;;;;;;15.07;8.80;;;13.10;99.90;;;14.25;100.00;98637.59;5041833;28;20465;-84
2021/07/21 02:51:25;;;;;;;12.10;9.07;;;13.10;99.90;;;14.25;100.00;98642.03;5042666;28;20507;-84
2021/07/21 02:54:08;;;;;;;14.27;9.60;;;13.00;99.90;;;14.31;100.00;98639.44;5043779;28;20496;-84
2021/07/21 02:56:45;;;;;;;15.83;9.00;;;13.20;99.90;;;14.33;100.00;98639.25;5044265;28;20465;-84
2021/07/21 02:59:19;;;;;;;14.73;8.50;;;13.20;99.90;;;14.12;100.00;98642.78;5043159;28;20503;-84
2021/07/21 03:01:50;;;;;;;11.67;8.87;;;13.00;99.90;;;14.11;100.00;98641.16;5044379;28;20472;-84
2021/07/21 03:04:24;;;;;;;14.03;9.30;;;13.00;99.90;;;14.11;100.00;98643.78;5046081;28;20807;-84
2021/07/21 03:06:57;;;;;;;18.93;10.57;;;13.00;99.90;;;14.23;100.00;98639.59;5046499;28;20572;-84
2021/07/21 03:09:27;;;;;;;18.50;9.40;;;13.10;99.90;;;14.09;100.00;98638.72;5049866;28;20462;-84
2021/07/21 03:12:00;;;;;;;13.40;9.13;;;13.00;99.90;;;14.14;100.00;98640.78;5043248;28;20457;-84
2021/07/21 03:14:30;;;;;;;14.20;8.70;;;13.00;99.90;;;14.07;100.00;98632.03;5044478;28;20489;-84
2021/07/21 03:17:03;;;;;;;17.97;8.97;;;12.90;99.90;;;14.12;100.00;98637.53;5042948;28;20473;-84
2021/07/21 03:19:34;;;;;;;12.23;8.70;;;13.00;99.90;;;14.07;100.00;98637.28;5045027;28;20465;-83
2021/07/21 03:22:05;;;;;;;16.27;8.90;;;13.00;99.90;;;14.13;100.00;98633.88;5042096;28;20551;-84
2021/07/21 03:24:33;;;;;;;11.80;8.47;;;13.00;99.90;;;14.13;100.00;98633.88;5046766;28;20868;-85
2021/07/21 03:27:03;;;;;;;14.80;7.90;;;13.00;99.90;;;14.07;100.00;98639.91;5043506;28;20511;-84
2021/07/21 03:29:35;;;;;;;13.80;8.97;;;13.00;99.90;;;14.10;100.00;98640.34;5045445;28;20481;-84
2021/07/21 03:32:06;;;;;;;17.30;8.60;;;13.00;99.90;;;14.01;100.00;98640.72;5044094;28;20464;-84
2021/07/21 03:34:40;;;;;;;11.50;7.67;;;12.90;99.90;;;13.95;100.00;98641.50;5042146;28;20555;-84
2021/07/21 03:37:12;;;;;;;13.83;8.90;;;12.90;99.90;;;13.93;100.00;98640.84;5044866;28;20485;-81
2021/07/21 03:39:41;;;;;;;18.93;11.00;;;12.80;99.90;;;13.98;100.00;98649.00;5044452;28;20461;-84
2021/07/21 03:42:13;;;;;;;14.67;8.83;;;13.00;99.90;;;13.91;100.00;98645.50;5044077;28;20523;-84
2021/07/21 03:44:45;;;;;;;16.10;9.23;;;12.90;99.90;;;13.94;100.00;98650.38;5041077;28;20463;-83
2021/07/21 03:47:16;;;;;;;15.13;8.03;;;12.90;99.90;;;13.87;100.00;98657.41;5043756;28;20484;-83
2021/07/21 03:49:46;;;;;;;15.80;9.00;;;12.70;99.90;;;13.85;100.00;98656.81;5047715;28;20999;-82
2021/07/21 03:52:15;;;;;;;12.10;7.83;;;12.70;99.90;;;13.85;100.00;98654.19;5038845;28;20523;-82
2021/07/21 03:54:47;;;;;;;18.60;8.00;;;12.70;99.90;;;13.87;100.00;98652.97;5046434;28;20572;-83
2021/07/21 03:57:19;;;;;;;12.20;7.80;;;12.70;99.90;;;13.98;100.00;98662.13;5046219;28;20484;-83
2021/07/21 03:59:50;;;;;;;12.57;8.60;;;12.90;99.90;;;13.92;100.00;98652.38;5043772;28;21041;-82
2021/07/21 04:02:19;;;;;;;16.40;8.67;;;12.80;99.90;;;13.89;100.00;98665.91;5042182;28;20437;-82
2021/07/21 04:04:51;;;;;;;12.20;8.30;;;12.80;99.90;;;13.78;100.00;98662.00;5044921;28;20457;-83
2021/07/21 04:07:21;;;;;;;18.30;8.50;;;12.70;99.90;;;13.74;100.00;98666.03;5044587;28;20967;-83
2021/07/21 04:09:53;;;;;;;12.90;7.80;;;12.60;99.90;;;13.69;100.00;98662.34;5047079;28;20522;-82
2021/07/21 04:12:23;;;;;;;13.93;7.83;;;12.60;99.90;;;13.77;100.00;98672.72;5045306;28;20453;-83
2021/07/21 04:14:54;;;;;;;15.80;8.33;;;12.60;99.90;;;13.75;100.00;98666.81;5047831;28;20574;-83
2021/07/21 04:17:24;;;;;;;18.80;8.47;;;12.60;99.90;;;13.59;100.00;98674.00;5051298;28;20445;-83
2021/07/21 04:19:53;;;;;;;22.80;9.43;;;12.40;99.90;;;13.58;100.00;98667.13;5053797;28;20506;-83
2021/07/21 04:22:24;;;;;;;14.23;8.07;;;12.50;99.90;;;13.61;100.00;98677.25;5042194;28;20504;-83
2021/07/21 04:24:53;;;;;;;11.43;7.60;;;12.50;99.90;;;13.73;100.00;98676.72;5046053;28;20499;-83
2021/07/21 04:27:22;;;;;;;15.00;8.17;;;12.60;99.90;;;13.67;100.00;98680.13;5051756;28;20853;-83
2021/07/21 04:29:54;;;;;;;12.73;8.13;;;12.50;99.90;;;13.63;100.00;98674.44;5047339;28;20469;-84
2021/07/21 04:32:25;;;;;;;45.70;25.13;;;12.50;99.90;;;13.71;100.00;98673.50;5049069;28;20453;-83
2021/07/21 04:34:54;;;;;;;17.03;8.07;;;12.70;99.90;;;13.79;100.00;98678.56;5049929;28;20505;-83
2021/07/21 04:37:24;;;;;;;11.77;7.50;;;12.70;99.90;;;13.80;100.00;98686.28;5049229;28;20449;-83
2021/07/21 04:39:55;;;;;;;16.50;8.33;;;12.70;99.90;;;13.68;100.00;98682.53;5049579;28;20448;-83
2021/07/21 04:42:28;;;;;;;16.37;7.87;;;12.60;99.90;;;13.70;100.00;98682.38;5049913;28;20468;-83
2021/07/21 04:44:58;;;;;;;12.33;7.53;;;12.60;99.90;;;13.68;100.00;98690.44;5050079;28;20498;-83
2021/07/21 04:47:27;;;;;;;13.67;7.67;;;12.60;99.90;;;13.62;100.00;98688.56;5045544;28;20990;-83
2021/07/21 04:50:00;;;;;;;11.30;7.53;;;12.50;99.90;;;13.75;100.00;98693.09;5049324;28;20457;-83
2021/07/21 04:52:29;;;;;;;13.30;7.83;;;12.70;99.90;;;13.72;100.00;98704.00;5049077;28;20440;-83
2021/07/21 04:54:57;;;;;;;12.10;7.87;;;12.60;99.90;;;13.78;100.00;98698.78;5046591;28;21031;-83
2021/07/21 04:57:25;;;;;;;12.00;7.23;;;12.70;99.90;;;13.74;100.00;98694.94;5046113;28;20449;-83
2021/07/21 04:59:54;;;;;;;11.53;7.83;;;12.60;99.90;;;13.68;100.00;98702.75;5050028;28;20560;-83
2021/07/21 05:02:24;;;;;;;12.57;8.03;;;12.60;99.90;;;13.72;100.00;98704.00;5049424;28;20453;-83
2021/07/21 05:04:53;;;;;;;11.80;7.70;;;12.60;99.90;;;13.86;100.00;98703.09;5049594;28;20518;-83
2021/07/21 05:07:21;;;;;;;9.90;6.63;;;12.80;99.90;;;13.98;100.00;98702.41;5048572;28;20437;-83
2021/07/21 05:09:49;;;;;;;14.00;7.67;;;13.00;99.90;;;14.08;100.00;98710.75;5046597;28;20449;-83
2021/07/21 05:12:18;;;;;;;12.37;6.63;;;13.10;99.90;;;14.12;100.00;98700.66;5048833;28;20472;-83
2021/07/21 05:14:52;;;;;;;14.37;6.80;;;13.20;99.90;;;14.13;100.00;98707.53;5044487;28;20525;-83
2021/07/21 05:17:20;;;;;;;11.13;7.60;;;13.10;99.90;;;14.22;100.00;98716.09;5049045;28;20487;-83
2021/07/21 05:19:50;;;;;;;10.20;6.83;;;13.20;99.90;;;14.28;100.00;98707.41;5048723;28;20449;-83
2021/07/21 05:22:18;;;;;;;12.23;7.70;;;13.30;99.90;;;14.34;100.00;98715.38;5043151;28;20956;-83
2021/07/21 05:24:47;;;;;;;10.20;6.00;;;13.40;99.90;;;14.43;100.00;98718.66;5049388;28;20498;-83
2021/07/21 05:27:16;;;;;;;10.77;6.80;;;13.40;99.90;;;14.49;100.00;98718.69;5049996;28;20441;-84
2021/07/21 05:29:44;;;;;;;14.33;6.93;;;13.50;99.90;;;14.54;100.00;98720.75;5046439;28;20557;-83
2021/07/21 05:32:13;;;;;;;18.90;6.70;;;13.50;99.90;;;14.62;100.00;98723.19;5048927;28;20446;-83
2021/07/21 05:34:42;;;;;;;13.83;6.80;;;13.60;99.90;;;14.68;100.00;98725.06;5048672;28;21368;-83
2021/07/21 05:37:12;;;;;;;13.53;6.57;;;13.70;99.90;;;14.74;100.00;98721.66;5048331;28;20453;-83
2021/07/21 05:39:40;;;;;;;12.67;6.80;;;13.70;99.90;;;14.78;100.00;98727.34;5044446;28;20445;-83
2021/07/21 05:42:09;;;;;;;13.93;7.23;;;13.80;99.90;;;14.81;100.00;98719.03;5047276;28;20445;-83
2021/07/21 05:44:38;;;;;;;11.20;6.40;;;13.90;99.90;;;14.85;100.00;98729.00;5048591;28;20520;-83
2021/07/21 05:47:07;;;;;;;12.23;7.13;;;13.80;99.90;;;14.82;100.00;98734.63;5042599;28;20534;-83
2021/07/21 05:49:35;;;;;;;10.23;6.50;;;13.80;99.90;;;14.83;100.00;98740.72;5046943;28;20450;-83
2021/07/21 05:52:05;;;;;;;11.47;7.10;;;13.90;99.90;;;14.84;100.00;98737.06;5046244;28;20446;-83
2021/07/21 05:54:37;;;;;;;13.07;6.03;;;13.90;99.90;;;14.86;100.00;98730.59;5047295;28;20567;-82
2021/07/21 05:57:06;;;;;;;12.23;6.93;;;13.90;99.90;;;14.93;100.00;98735.88;5043880;28;20829;-83
2021/07/21 05:59:35;;;;;;;9.67;6.40;;;13.90;99.90;;;14.99;100.00;98732.47;5043787;28;20441;-83
2021/07/21 06:02:04;;;;;;;9.50;6.73;;;13.90;99.90;;;15.05;100.00;98731.69;5045582;28;20465;-83
2021/07/21 06:04:33;;;;;;;12.77;6.53;;;14.00;99.90;;;15.10;100.00;98734.50;5047626;28;20461;-83
2021/07/21 06:07:03;;;;;;;15.57;7.77;;;14.00;99.90;;;15.16;100.00;98731.09;5045901;28;20472;-83
2021/07/21 06:09:32;;;;;;;13.17;6.63;;;14.10;99.90;;;15.25;100.00;98732.53;5045516;28;20531;-83
2021/07/21 06:12:02;;;;;;;14.33;6.90;;;14.20;99.90;;;15.32;100.00;98737.81;5048171;28;20445;-83
2021/07/21 06:14:32;;;;;;;20.63;7.70;;;14.30;99.90;;;15.39;100.00;98742.09;5048239;28;20477;-83
2021/07/21 06:17:01;;;;;;;30.63;9.40;;;14.40;99.90;;;15.40;100.00;98735.00;5044806;28;20449;-83
2021/07/21 06:19:33;;;;;;;19.77;8.43;;;14.40;99.90;;;15.46;100.00;98742.91;5054253;28;21061;-83
2021/07/21 06:22:02;;;;;;;24.13;7.63;;;14.50;99.90;;;15.53;100.00;98743.75;5047754;28;20441;-83
2021/07/21 06:24:31;;;;;;;22.43;9.10;;;14.60;99.90;;;15.59;100.00;98740.31;5047839;28;20452;-83
2021/07/21 06:27:02;;;;;;;13.67;6.73;;;14.60;99.90;;;15.63;100.00;98747.81;5047825;28;20463;-83
2021/07/21 06:29:31;;;;;;;19.23;6.67;;;14.60;99.90;;;15.70;100.00;98746.00;5046422;28;20560;-83
2021/07/21 06:32:00;;;;;;;20.27;6.33;;;14.70;99.90;;;15.76;100.00;98747.84;5038475;28;20546;-83
2021/07/21 06:34:28;;;;;;;126.67;15.33;;;14.80;99.90;;;15.81;100.00;98748.03;5047674;28;20841;-82
2021/07/21 06:36:57;;;;;;;31.40;9.80;;;14.80;99.90;;;15.88;100.00;98751.47;5047410;28;20460;-83
2021/07/21 06:39:25;;;;;;;26.13;6.30;;;14.90;99.90;;;15.94;100.00;98753.31;5047384;28;20842;-83
2021/07/21 06:41:54;;;;;;;16.97;6.07;;;15.00;99.90;;;16.00;100.00;98755.16;5044353;28;20495;-83
2021/07/21 06:44:24;;;;;;;7.17;4.33;;;15.10;99.90;;;16.07;100.00;98751.47;5046832;28;20978;-83
2021/07/21 06:46:52;;;;;;;12.53;5.00;;;15.20;99.90;;;16.14;100.00;98755.94;5047480;28;21002;-83
2021/07/21 06:49:21;;;;;;;7.97;4.70;;;15.30;99.90;;;16.21;100.00;98751.47;5046691;28;20445;-83
2021/07/21 06:51:50;;;;;;;9.03;4.80;;;15.40;99.90;;;16.24;100.00;98757.16;5047243;28;20499;-83
2021/07/21 06:54:18;;;;;;;7.47;4.80;;;15.40;99.90;;;16.30;100.00;98764.25;5043636;28;20868;-83
2021/07/21 06:56:47;;;;;;;10.13;5.10;;;15.40;99.90;;;16.36;100.00;98765.25;5047652;28;20508;-83
2021/07/21 06:59:15;;;;;;;7.07;4.50;;;15.50;99.90;;;16.36;100.00;98766.06;5047582;28;20873;-83
2021/07/21 07:01:45;;;;;;;10.40;5.07;;;15.50;99.90;;;16.43;100.00;98777.41;5047400;28;20468;-83
2021/07/21 07:04:14;;;;;;;10.13;5.10;;;15.50;99.90;;;16.45;100.00;98769.31;5049209;28;20524;-83
2021/07/21 07:06:43;;;;;;;12.50;5.50;;;15.50;99.90;;;16.51;100.00;98769.28;5047129;28;20479;-83
2021/07/21 07:09:11;;;;;;;9.93;4.87;;;15.60;99.90;;;16.60;100.00;98769.88;5047329;28;20607;-83
2021/07/21 07:11:40;;;;;;;45.67;8.07;;;15.80;99.90;;;16.63;100.00;98771.28;5046985;28;20722;-83
2021/07/21 07:14:08;;;;;;;22.70;5.83;;;15.80;99.90;;;16.71;100.00;98773.72;5047132;28;20453;-83
2021/07/21 07:16:37;;;;;;;12.77;5.37;;;15.90;99.90;;;16.76;100.00;98776.56;5047071;28;21124;-83
2021/07/21 07:19:07;;;;;;;14.80;5.77;;;15.90;99.90;;;16.80;100.00;98780.41;5037668;28;20805;-83
2021/07/21 07:21:36;;;;;;;10.20;5.30;;;15.90;99.90;;;16.85;100.00;98776.09;5044069;28;20963;-83
2021/07/21 07:24:06;;;;;;;8.33;5.20;;;16.10;99.90;;;16.90;100.00;98780.78;5046811;28;20512;-83
2021/07/21 07:26:35;;;;;;;17.57;5.40;;;16.20;99.90;;;16.93;100.00;98777.72;5046969;28;20448;-83
2021/07/21 07:29:03;;;;;;;18.37;6.30;;;16.10;99.90;;;16.98;100.00;98780.53;5047204;28;20463;-83
2021/07/21 07:31:32;;;;;;;10.83;5.77;;;16.20;99.90;;;17.04;100.00;98774.41;5046633;28;20504;-83
2021/07/21 07:34:01;;;;;;;8.37;5.00;;;16.20;99.90;;;17.10;100.00;98773.56;5046510;28;20449;-82
2021/07/21 07:36:31;;;;;;;7.50;5.37;;;16.30;99.90;;;17.15;100.00;98765.81;5045942;28;20646;-83
2021/07/21 07:38:59;;;;;;;7.30;4.90;;;16.30;99.90;;;17.21;100.00;98767.63;5046754;28;20885;-83
2021/07/21 07:41:28;;;;;;;11.37;5.60;;;16.40;99.90;;;17.26;100.00;98769.63;5044672;28;20920;-83
2021/07/21 07:43:56;;;;;;;12.17;5.93;;;16.50;99.90;;;17.30;100.00;98761.06;5044830;28;20448;-83
2021/07/21 07:46:27;;;;;;;10.33;5.53;;;16.50;99.90;;;17.35;100.00;98763.88;5047392;28;20473;-83
2021/07/21 07:48:57;;;;;;;12.33;6.27;;;16.50;99.90;;;17.41;100.00;98763.03;5043949;28;20511;-83
2021/07/21 07:51:29;;;;;;;16.03;5.93;;;16.60;99.90;;;17.44;100.00;98764.44;5048529;28;20846;-83
2021/07/21 07:53:59;;;;;;;10.73;5.60;;;16.60;99.90;;;17.48;100.00;98766.44;5050448;28;20503;-83
2021/07/21 07:56:27;;;;;;;9.37;5.37;;;16.70;99.90;;;17.54;100.00;98768.22;5043497;28;20492;-83
2021/07/21 07:58:56;;;;;;;11.73;5.60;;;16.70;99.90;;;17.58;100.00;98769.47;5050367;28;20449;-83
2021/07/21 08:01:25;;;;;;;20.07;6.60;;;16.80;99.90;;;17.64;100.00;98756.38;5049315;28;20509;-82
2021/07/21 08:03:54;;;;;;;20.80;5.90;;;16.90;99.90;;;17.70;100.00;98761.63;5049295;28;20464;-83
2021/07/21 08:06:23;;;;;;;14.10;5.80;;;17.00;99.90;;;17.76;100.00;98759.97;5049285;28;20828;-83
2021/07/21 08:08:51;;;;;;;20.73;6.40;;;17.00;99.90;;;17.81;100.00;98758.28;5050133;28;20452;-83
2021/07/21 08:11:21;;;;;;;20.87;6.30;;;17.10;99.90;;;17.84;100.00;98759.72;5055920;28;20495;-83
2021/07/21 08:13:50;;;;;;;10.80;5.43;;;17.10;99.90;;;17.87;100.00;98759.28;5047610;28;20463;-83
2021/07/21 08:16:18;;;;;;;15.70;4.67;;;17.10;99.90;;;17.93;100.00;98753.13;5044622;28;20783;-83
2021/07/21 08:18:47;;;;;;;9.53;5.43;;;17.10;99.90;;;17.98;100.00;98761.19;5049848;28;20537;-83
2021/07/21 08:21:16;;;;;;;15.97;5.10;;;17.20;99.90;;;18.03;100.00;98748.16;5049450;28;20449;-83
2021/07/21 08:23:44;;;;;;;9.93;6.30;;;17.30;99.90;;;18.02;100.00;98751.81;5048170;28;20881;-86
2021/07/21 08:26:12;;;;;;;7.57;4.70;;;17.20;99.90;;;18.09;100.00;98749.91;5050098;28;20494;-83
2021/07/21 08:28:42;;;;;;;5.47;4.67;;;17.40;99.90;;;18.13;100.00;98745.81;5049595;28;20546;-83
2021/07/21 08:31:11;;;;;;;17.87;5.70;;;17.40;99.90;;;18.17;100.00;98747.00;5049779;28;20441;-83
2021/07/21 08:33:40;;;;;;;18.60;4.60;;;17.50;99.90;;;18.23;100.00;98748.75;5049001;28;20452;-83
2021/07/21 08:36:08;;;;;;;12.50;4.80;;;17.50;99.90;;;18.26;100.00;98743.03;5048588;28;21002;-82
2021/07/21 08:38:37;;;;;;;15.33;5.20;;;17.60;99.90;;;18.31;100.00;98751.13;5045884;28;20861;-82
2021/07/21 08:41:06;;;;;;;7.10;5.17;;;17.60;99.90;;;18.37;100.00;98750.25;5049364;28;20446;-83
2021/07/21 08:43:36;;;;;;;6.53;4.43;;;17.70;99.90;;;18.44;100.00;98755.47;5049814;28;20988;-83
2021/07/21 08:46:06;;;;;;;10.27;5.07;;;17.70;99.90;;;18.49;99.48;98748.50;5049071;28;20546;-82
2021/07/21 08:48:35;;;;;;;13.50;5.80;;;17.80;99.90;;;18.56;100.00;98748.47;5049476;28;20441;-83
2021/07/21 08:51:04;;;;;;;23.97;4.73;;;17.90;99.90;;;18.65;99.71;98751.63;5048691;28;20734;-82
2021/07/21 08:53:36;;;;;;;15.67;6.70;;;18.00;99.90;;;18.72;98.96;98750.53;5046235;28;20441;-83
2021/07/21 08:56:05;;;;;;;12.20;5.17;;;18.10;99.90;;;18.82;96.38;98747.34;5046124;28;20496;-82
2021/07/21 08:58:35;;;;;;;6.70;4.50;;;18.30;99.90;;;18.89;96.10;98756.03;5042998;28;20884;-82
2021/07/21 09:01:03;;;;;;;10.40;4.70;;;18.30;99.90;;;18.98;97.46;98754.69;5047250;28;20982;-83
2021/07/21 09:03:34;;;;;;;12.90;5.40;;;18.40;99.90;;;19.02;94.31;98746.06;5048841;28;20449;-83
2021/07/21 09:06:03;;;;;;;24.97;6.50;;;18.50;99.90;;;19.10;94.12;98751.06;5049046;28;21248;-82
2021/07/21 09:08:34;;;;;;;9.10;4.87;;;18.60;99.90;;;19.19;92.94;98756.88;5048865;28;20939;-83
2021/07/21 09:11:04;;;;;;;12.17;5.60;;;18.70;99.90;;;19.23;93.69;98743.97;5048732;28;20534;-83
2021/07/21 09:13:35;;;;;;;26.60;7.43;;;18.70;99.90;;;19.31;94.29;98755.06;5045069;28;20453;-82
2021/07/21 09:16:05;;;;;;;51.00;8.70;;;18.80;99.90;;;19.38;94.77;98752.31;5048896;28;20510;-83
2021/07/21 09:18:49;;;;;;;14.03;6.80;;;18.80;99.90;;;19.45;94.07;98759.19;5048172;28;20529;-82
2021/07/21 09:21:21;;;;;;;10.60;4.10;;;18.90;99.90;;;19.53;93.54;98755.41;5048896;28;20441;-82
2021/07/21 09:23:54;;;;;;;9.57;5.60;;;19.00;99.90;;;19.62;93.34;98753.22;5048680;28;20973;-82
2021/07/21 09:26:41;;;;;;;13.77;5.80;;;19.10;99.90;;;19.69;92.51;98753.94;5048689;28;20449;-82
2021/07/21 09:29:10;;;;;;;12.63;5.53;;;19.20;99.90;;;19.76;91.04;98751.97;5047192;28;20522;-83
2021/07/21 09:31:43;;;;;;;10.90;5.40;;;19.30;99.90;;;19.80;87.07;98750.50;5047735;28;20445;-82
2021/07/21 09:34:16;;;;;;;7.67;4.87;;;19.30;99.90;;;19.88;87.72;98739.53;5048492;28;20441;-82
2021/07/21 09:36:45;;;;;;;6.37;4.87;;;19.40;99.90;;;19.93;86.66;98747.63;5050527;28;20735;-82
2021/07/21 09:39:15;;;;;;;8.43;5.60;;;19.40;99.90;;;19.95;86.61;98742.91;5048687;28;20791;-82
2021/07/21 09:41:51;;;;;;;11.27;6.23;;;19.40;99.90;;;19.98;85.04;98748.56;5048312;28;20550;-82
2021/07/21 09:44:32;;;;;;;25.53;5.50;;;19.40;99.90;;;20.05;85.01;98748.44;5047999;28;20879;-82
2021/07/21 09:47:13;;;;;;;10.53;4.50;;;19.50;99.90;;;20.11;85.82;98742.19;5048024;28;20514;-83
2021/07/21 09:49:47;;;;;;;10.47;5.30;;;19.50;99.90;;;20.15;85.41;98743.38;5047228;28;20843;-83
2021/07/21 09:52:22;;;;;;;11.67;4.53;;;19.60;99.90;;;20.21;85.66;98737.13;5048119;28;20839;-82
2021/07/21 09:55:07;;;;;;;11.00;5.20;;;19.70;99.90;;;20.27;86.16;98730.91;5045363;28;20441;-83
2021/07/21 09:57:38;;;;;;;8.07;5.07;;;19.70;99.90;;;20.32;87.26;98736.34;5046149;28;20504;-82
2021/07/21 10:00:21;;;;;;;7.13;4.87;;;19.80;99.90;;;20.35;89.08;98737.72;5041295;28;20445;-83
2021/07/21 10:02:51;;;;;;;10.07;5.80;;;19.70;99.90;;;20.39;86.50;98734.38;5049224;28;20453;-83
2021/07/21 10:05:21;;;;;;;9.50;5.43;;;19.80;99.90;;;20.45;86.22;98740.59;5046851;28;20536;-83
2021/07/21 10:07:50;;;;;;;16.47;5.13;;;19.80;99.90;;;20.46;86.86;98744.88;5047006;28;20441;-83
2021/07/21 10:10:22;;;;;;;10.60;5.40;;;19.80;99.90;;;20.44;88.26;98749.63;5047796;28;20935;-82
2021/07/21 10:13:06;;;;;;;8.07;5.87;;;19.80;99.90;;;20.44;86.91;98745.09;5045135;28;20473;-82
2021/07/21 10:15:36;;;;;;;13.03;5.33;;;19.80;99.90;;;20.49;85.59;98744.41;5038713;28;20499;-82
2021/07/21 10:18:11;;;;;;;8.70;5.87;;;19.80;99.90;;;20.49;84.27;98733.78;5041231;28;20511;-82
2021/07/21 10:20:45;;;;;;;11.20;6.40;;;19.80;99.90;;;20.50;84.32;98736.22;5046889;28;20808;-82
2021/07/21 10:23:17;;;;;;;9.13;5.50;;;19.80;99.90;;;20.55;83.44;98741.63;5042143;28;20881;-82